Time;durP1;ratioP1;P1;durP2;ratioP2;P2;SDS_P1;SDS_P2;PMS_P1;PMS_P2;Temp;Humidity;BMP_temperature;BMP_pressure;BME280_temperature;BME280_humidity;BME280_pressure;Samples;Min_cycle;Max_cycle;Signal;HPM_P1;HPM_P2
2022/08/01 00:00:16;;;;;;;;;;;;;;;21.82;69.94;101327.47;1022183;28;721;-76
2022/08/01 00:01:07;;;;;;;;;;;;;;;21.82;70.12;101330.19;1020779;29;686;-76
2022/08/01 00:01:57;;;;;;;;;;;;;;;21.82;69.88;101325.63;1020977;29;662;-76
2022/08/01 00:02:48;;;;;;;;;;;;;;;21.80;69.97;101330.34;1021744;29;751;-76
2022/08/01 00:03:38;;;;;;;;;;;;;;;21.80;70.05;101332.22;1022474;28;697;-77
2022/08/01 00:04:29;;;;;;;;;;;;;;;21.80;69.78;101335.78;1025727;28;1618;-77
2022/08/01 00:05:19;;;;;;;;;;;;;;;21.80;69.86;101330.34;1025823;28;693;-77
2022/08/01 00:06:09;;;;;;;;;;;;;;;21.81;70.14;101329.34;1025713;28;654;-77
2022/08/01 00:07:00;;;;;;;;;;;;;;;21.80;70.01;101324.06;1025772;28;670;-77
2022/08/01 00:07:50;;;;;;;;;;;;;;;21.81;69.80;101328.50;1025677;28;677;-77
2022/08/01 00:08:41;;;;;;;;;;;;;;;21.79;70.04;101325.94;1025816;28;650;-77
2022/08/01 00:09:31;;;;;;;;;;;;;;;21.78;70.13;101326.94;1026126;28;635;-77
2022/08/01 00:10:22;;;;;;;;;;;;;;;21.78;69.96;101329.66;1025766;28;611;-77
2022/08/01 00:11:13;;;;;;;;;;;;;;;21.76;70.09;101320.84;1025869;28;651;-76
2022/08/01 00:12:04;;;;;;;;;;;;;;;21.78;70.03;101328.81;1025275;28;634;-77
2022/08/01 00:12:55;;;;;;;;;;;;;;;21.77;70.30;101330.66;1026572;28;670;-77
2022/08/01 00:13:45;;;;;;;;;;;;;;;21.77;69.90;101322.53;1026468;28;721;-77
2022/08/01 00:14:36;;;;;;;;;;;;;;;21.75;70.15;101326.41;1025692;28;697;-77
2022/08/01 00:15:26;;;;;;;;;;;;;;;21.75;70.29;101331.84;1026326;28;642;-78
2022/08/01 00:16:17;;;;;;;;;;;;;;;21.77;70.02;101329.81;1026274;28;705;-77
2022/08/01 00:17:07;;;;;;;;;;;;;;;21.77;69.93;101327.97;1025667;28;730;-77
2022/08/01 00:17:58;;;;;;;;;;;;;;;21.78;70.28;101329.66;1025442;28;634;-77
2022/08/01 00:18:48;;;;;;;;;;;;;;;21.78;70.32;101329.66;1025597;28;767;-78
2022/08/01 00:19:39;;;;;;;;;;;;;;;21.79;69.99;101327.81;1025275;28;705;-77
2022/08/01 00:20:29;;;;;;;;;;;;;;;21.78;69.78;101326.94;1026136;28;666;-77
2022/08/01 00:21:19;;;;;;;;;;;;;;;21.78;70.28;101326.94;1025699;28;697;-77
2022/08/01 00:22:10;;;;;;;;;;;;;;;21.80;70.09;101329.50;1038165;23;3715;-72
2022/08/01 00:23:00;;;;;;;;;;;;;;;21.80;70.20;101334.94;1010261;28;4541;-74
2022/08/01 00:23:51;;;;;;;;;;;;;;;21.80;70.22;101333.06;1021705;28;642;-74
2022/08/01 00:24:41;;;;;;;;;;;;;;;21.76;70.15;101333.53;1021445;28;632;-74
2022/08/01 00:25:32;;;;;;;;;;;;;;;21.75;70.33;101342.69;1021579;28;667;-74
2022/08/01 00:26:22;;;;;;;;;;;;;;;21.76;70.18;101342.53;1021640;28;720;-74
2022/08/01 00:27:13;;;;;;;;;;;;;;;21.76;70.29;101347.09;1021499;28;596;-75
2022/08/01 00:28:03;;;;;;;;;;;;;;;21.75;70.46;101348.97;1021609;28;1914;-74
2022/08/01 00:28:54;;;;;;;;;;;;;;;21.75;70.17;101340.84;1021503;28;621;-74
2022/08/01 00:29:44;;;;;;;;;;;;;;;21.73;70.45;101342.84;1021549;28;674;-74
2022/08/01 00:30:34;;;;;;;;;;;;;;;21.75;70.32;101343.53;1021460;28;1724;-74
2022/08/01 00:31:25;;;;;;;;;;;;;;;21.77;70.24;101337.97;1021481;28;615;-74
2022/08/01 00:32:15;;;;;;;;;;;;;;;21.77;70.51;101346.09;1021501;28;690;-74
2022/08/01 00:33:06;;;;;;;;;;;;;;;21.77;70.42;101341.53;1021490;28;710;-74
2022/08/01 00:33:56;;;;;;;;;;;;;;;21.78;70.03;101332.38;1021573;28;728;-74
2022/08/01 00:34:46;;;;;;;;;;;;;;;21.76;70.26;101345.25;1021700;28;682;-74
2022/08/01 00:35:37;;;;;;;;;;;;;;;21.74;69.98;101341.84;1021506;28;642;-74
2022/08/01 00:36:27;;;;;;;;;;;;;;;21.74;70.11;101336.41;1021128;28;670;-74
2022/08/01 00:37:18;;;;;;;;;;;;;;;21.75;70.29;101342.69;1021509;28;614;-73
2022/08/01 00:38:08;;;;;;;;;;;;;;;21.74;70.12;101341.84;1021490;28;634;-72
2022/08/01 00:38:59;;;;;;;;;;;;;;;21.76;70.33;101337.09;1021643;28;636;-72
2022/08/01 00:39:49;;;;;;;;;;;;;;;21.75;70.09;101338.13;1021411;28;678;-72
2022/08/01 00:40:39;;;;;;;;;;;;;;;21.75;70.39;101332.69;1021647;28;665;-73
2022/08/01 00:41:30;;;;;;;;;;;;;;;21.74;70.29;101328.28;1021113;28;698;-73
2022/08/01 00:42:20;;;;;;;;;;;;;;;21.74;70.42;101333.69;1021098;28;678;-73
2022/08/01 00:43:11;;;;;;;;;;;;;;;21.74;70.13;101330.13;1016638;29;644;-73
2022/08/01 00:44:01;;;;;;;;;;;;;;;21.74;70.17;101341.00;1016507;29;749;-72
2022/08/01 00:44:52;;;;;;;;;;;;;;;21.74;70.33;101331.00;1016467;29;612;-74
2022/08/01 00:45:42;;;;;;;;;;;;;;;21.75;70.30;101329.97;1017532;29;686;-73
2022/08/01 00:46:32;;;;;;;;;;;;;;;21.74;70.54;101330.13;1016510;29;687;-73
2022/08/01 00:47:23;;;;;;;;;;;;;;;21.72;70.59;101338.44;1016439;29;690;-73
2022/08/01 00:48:13;;;;;;;;;;;;;;;21.73;70.39;101340.13;1016365;29;1886;-73
2022/08/01 00:49:04;;;;;;;;;;;;;;;21.72;70.19;101341.16;1016464;29;616;-72
2022/08/01 00:49:54;;;;;;;;;;;;;;;21.73;70.28;101339.28;1016502;29;659;-73
2022/08/01 00:50:45;;;;;;;;;;;;;;;21.73;70.20;101339.28;1016465;29;925;-73
2022/08/01 00:51:35;;;;;;;;;;;;;;;21.74;70.38;101343.69;1016604;29;602;-73
2022/08/01 00:52:26;;;;;;;;;;;;;;;21.74;70.16;101341.84;1016365;29;714;-73
2022/08/01 00:53:16;;;;;;;;;;;;;;;21.74;70.07;101341.84;1016442;29;687;-73
2022/08/01 00:54:06;;;;;;;;;;;;;;;21.74;70.14;101341.84;1016485;29;667;-72
2022/08/01 00:54:57;;;;;;;;;;;;;;;21.73;70.23;101348.28;1016329;29;643;-73
2022/08/01 00:55:48;;;;;;;;;;;;;;;21.72;69.91;101349.28;1020685;29;729;-73
2022/08/01 00:56:38;;;;;;;;;;;;;;;21.72;70.26;101348.44;1019635;29;631;-73
2022/08/01 00:57:29;;;;;;;;;;;;;;;21.75;70.05;101346.25;1015797;29;623;-73
2022/08/01 00:58:19;;;;;;;;;;;;;;;21.75;70.05;101350.84;1016410;29;679;-73
2022/08/01 00:59:09;;;;;;;;;;;;;;;21.74;70.39;101354.56;1015875;29;722;-73
2022/08/01 01:00:00;;;;;;;;;;;;;;;21.75;70.07;101351.69;1017022;29;678;-73
2022/08/01 01:00:50;;;;;;;;;;;;;;;21.72;69.84;101349.28;1016935;29;644;-73
2022/08/01 01:01:41;;;;;;;;;;;;;;;21.72;70.08;101354.72;1016886;29;694;-73
2022/08/01 01:02:31;;;;;;;;;;;;;;;21.72;69.98;101354.72;1017473;29;713;-73
2022/08/01 01:03:22;;;;;;;;;;;;;;;21.72;69.90;101349.28;1016309;29;603;-73
2022/08/01 01:04:12;;;;;;;;;;;;;;;21.72;69.82;101349.28;1019005;29;1591;-73
2022/08/01 01:05:03;;;;;;;;;;;;;;;21.73;70.04;101350.13;1021403;28;694;-76
2022/08/01 01:05:53;;;;;;;;;;;;;;;21.72;69.93;101351.16;1021185;28;1582;-73
2022/08/01 01:06:44;;;;;;;;;;;;;;;21.72;69.84;101346.56;1021400;28;646;-73
2022/08/01 01:07:35;;;;;;;;;;;;;;;21.70;70.29;101343.16;1021388;28;634;-73
2022/08/01 01:08:25;;;;;;;;;;;;;;;21.69;70.22;101352.31;1021318;28;1891;-73
2022/08/01 01:09:15;;;;;;;;;;;;;;;21.69;70.17;101344.16;1021370;28;937;-73
2022/08/01 01:10:06;;;;;;;;;;;;;;;21.69;69.94;101346.88;1021404;28;694;-73
2022/08/01 01:10:56;;;;;;;;;;;;;;;21.70;70.32;101348.59;1021452;28;694;-73
2022/08/01 01:11:47;;;;;;;;;;;;;;;21.72;70.25;101340.28;1021357;28;663;-73
2022/08/01 01:12:37;;;;;;;;;;;;;;;21.70;70.01;101345.88;1021354;28;548;-73
2022/08/01 01:13:27;;;;;;;;;;;;;;;21.71;69.95;101347.56;1021369;28;733;-73
2022/08/01 01:14:18;;;;;;;;;;;;;;;21.72;70.14;101354.72;1021390;28;635;-73
2022/08/01 01:15:09;;;;;;;;;;;;;;;21.70;70.13;101345.03;1021579;28;573;-73
2022/08/01 01:15:59;;;;;;;;;;;;;;;21.70;69.74;101345.88;1021343;28;742;-73
2022/08/01 01:16:50;;;;;;;;;;;;;;;21.69;69.47;101349.59;1021305;28;645;-73
2022/08/01 01:17:40;;;;;;;;;;;;;;;21.67;69.76;101348.94;1021408;28;631;-75
2022/08/01 01:18:30;;;;;;;;;;;;;;;21.67;70.06;101343.50;1021345;28;701;-75
2022/08/01 01:19:21;;;;;;;;;;;;;;;21.67;70.12;101342.66;1021553;28;702;-75
2022/08/01 01:20:11;;;;;;;;;;;;;;;21.68;70.32;101352.47;1020894;28;752;-75
2022/08/01 01:21:02;;;;;;;;;;;;;;;21.68;70.24;101339.75;1021439;28;599;-75
2022/08/01 01:21:52;;;;;;;;;;;;;;;21.71;70.02;101336.72;1021031;28;609;-75
2022/08/01 01:22:43;;;;;;;;;;;;;;;21.71;70.02;101342.16;1020950;29;733;-75
2022/08/01 01:23:33;;;;;;;;;;;;;;;21.70;69.97;101340.44;1021408;28;603;-75
2022/08/01 01:24:23;;;;;;;;;;;;;;;21.70;70.04;101343.16;1021282;28;631;-75
2022/08/01 01:25:14;;;;;;;;;;;;;;;21.70;70.41;101340.44;1017491;29;714;-75
2022/08/01 01:26:04;;;;;;;;;;;;;;;21.68;70.21;101339.75;1016522;29;643;-76
2022/08/01 01:26:55;;;;;;;;;;;;;;;21.67;70.09;101335.38;1016153;29;698;-75
2022/08/01 01:27:45;;;;;;;;;;;;;;;21.64;70.18;101335.69;1017451;29;686;-75
2022/08/01 01:28:36;;;;;;;;;;;;;;;21.66;70.67;101339.09;1016377;29;694;-75
2022/08/01 01:29:26;;;;;;;;;;;;;;;21.65;70.37;101331.09;1016172;29;615;-75
2022/08/01 01:30:17;;;;;;;;;;;;;;;21.67;70.36;101334.50;1016648;29;674;-75
2022/08/01 01:31:07;;;;;;;;;;;;;;;21.65;70.32;101328.41;1017377;29;611;-76
2022/08/01 01:31:58;;;;;;;;;;;;;;;21.66;70.22;101327.38;1016423;29;603;-75
2022/08/01 01:32:48;;;;;;;;;;;;;;;21.68;70.51;101337.03;1016280;29;610;-75
2022/08/01 01:33:38;;;;;;;;;;;;;;;21.68;70.24;101333.47;1016374;29;698;-76
2022/08/01 01:34:29;;;;;;;;;;;;;;;21.68;70.30;101331.63;1020630;28;618;-76
2022/08/01 01:35:20;;;;;;;;;;;;;;;21.67;70.40;101339.94;1020868;29;642;-75
2022/08/01 01:36:10;;;;;;;;;;;;;;;21.68;70.36;101341.63;1016424;29;702;-75
2022/08/01 01:37:01;;;;;;;;;;;;;;;21.68;70.23;101342.47;1016288;29;925;-75
2022/08/01 01:37:51;;;;;;;;;;;;;;;21.69;70.11;101343.31;1020949;28;780;-76
2022/08/01 01:38:42;;;;;;;;;;;;;;;21.70;70.27;101339.59;1021034;28;614;-75
2022/08/01 01:39:32;;;;;;;;;;;;;;;21.69;70.04;101344.16;1016262;29;611;-75
2022/08/01 01:40:23;;;;;;;;;;;;;;;21.67;70.42;101339.94;1016436;29;611;-76
2022/08/01 01:41:13;;;;;;;;;;;;;;;21.69;70.20;101340.59;1017346;29;649;-75
2022/08/01 01:42:04;;;;;;;;;;;;;;;21.68;70.01;101339.75;1016229;29;628;-75
2022/08/01 01:42:54;;;;;;;;;;;;;;;21.68;70.29;101342.47;1017442;29;622;-75
2022/08/01 01:43:45;;;;;;;;;;;;;;;21.65;70.20;101339.25;1017368;29;554;-75
2022/08/01 01:44:35;;;;;;;;;;;;;;;21.64;70.18;101341.09;1016322;29;628;-76
2022/08/01 01:45:25;;;;;;;;;;;;;;;21.66;70.20;101346.38;1016317;29;678;-76
2022/08/01 01:46:16;;;;;;;;;;;;;;;21.67;70.17;101346.22;1017359;29;757;-75
2022/08/01 01:47:06;;;;;;;;;;;;;;;21.64;70.07;101338.41;1017380;29;1571;-75
2022/08/01 01:47:57;;;;;;;;;;;;;;;21.64;70.17;101341.09;1020115;29;608;-75
2022/08/01 01:48:48;;;;;;;;;;;;;;;21.63;70.28;101339.41;1020464;29;634;-72
2022/08/01 01:49:38;;;;;;;;;;;;;;;21.63;70.15;101347.53;1020776;29;646;-75
2022/08/01 01:50:29;;;;;;;;;;;;;;;21.63;70.21;101347.53;1024485;29;690;-75
2022/08/01 01:51:19;;;;;;;;;;;;;;;21.64;70.54;101340.25;1024017;29;604;-75
2022/08/01 01:52:10;;;;;;;;;;;;;;;21.66;70.13;101347.22;1020135;29;602;-75
2022/08/01 01:53:00;;;;;;;;;;;;;;;21.62;70.40;101339.56;1020296;29;611;-75
2022/08/01 01:53:50;;;;;;;;;;;;;;;21.61;70.64;101346.84;1020253;29;659;-75
2022/08/01 01:54:41;;;;;;;;;;;;;;;21.63;70.03;101342.13;1020597;29;824;-75
2022/08/01 01:55:31;;;;;;;;;;;;;;;21.63;70.35;101343.97;1020014;29;1614;-74
2022/08/01 01:56:22;;;;;;;;;;;;;;;21.62;69.86;101348.56;1019968;29;623;-75
2022/08/01 01:57:12;;;;;;;;;;;;;;;21.64;70.19;101345.69;1020179;29;584;-75
2022/08/01 01:58:02;;;;;;;;;;;;;;;21.67;70.11;101339.94;1020281;29;626;-74
2022/08/01 01:58:53;;;;;;;;;;;;;;;21.67;69.93;101340.78;1020049;29;1178;-75
2022/08/01 01:59:43;;;;;;;;;;;;;;;21.66;70.23;101344.53;1024455;28;705;-75
2022/08/01 02:00:34;;;;;;;;;;;;;;;21.64;70.48;101341.09;1025352;28;603;-75
2022/08/01 02:01:24;;;;;;;;;;;;;;;21.66;70.19;101343.66;1021871;28;689;-75
2022/08/01 02:02:15;;;;;;;;;;;;;;;21.63;70.54;101344.81;1020741;29;670;-75
2022/08/01 02:03:06;;;;;;;;;;;;;;;21.63;70.57;101344.81;1019829;29;647;-75
2022/08/01 02:03:56;;;;;;;;;;;;;;;21.64;70.14;101346.53;1020719;29;698;-75
2022/08/01 02:04:47;;;;;;;;;;;;;;;21.62;70.52;101336.84;1024209;28;635;-75
2022/08/01 02:05:37;;;;;;;;;;;;;;;21.61;70.58;101346.00;1025584;28;618;-75
2022/08/01 02:06:28;;;;;;;;;;;;;;;21.62;70.63;101340.41;1020921;28;571;-75
2022/08/01 02:07:18;;;;;;;;;;;;;;;21.65;70.67;101342.81;1021068;28;1400;-75
2022/08/01 02:08:09;;;;;;;;;;;;;;;21.65;70.50;101342.81;1020196;29;1919;-75
2022/08/01 02:08:59;;;;;;;;;;;;;;;21.63;70.30;101339.41;1019863;29;1594;-75
2022/08/01 02:09:49;;;;;;;;;;;;;;;21.64;70.19;101346.53;1024406;28;718;-75
2022/08/01 02:10:40;;;;;;;;;;;;;;;21.64;69.94;101338.41;1023822;29;561;-75
2022/08/01 02:11:30;;;;;;;;;;;;;;;21.64;70.17;101348.41;1020304;29;745;-75
2022/08/01 02:12:21;;;;;;;;;;;;;;;21.64;69.94;101343.81;1024419;28;627;-75
2022/08/01 02:13:11;;;;;;;;;;;;;;;21.63;70.23;101349.41;1023795;29;682;-75
2022/08/01 02:14:02;;;;;;;;;;;;;;;21.63;70.60;101349.41;1020163;29;749;-75
2022/08/01 02:14:53;;;;;;;;;;;;;;;21.62;70.50;101345.84;1024394;29;662;-75
2022/08/01 02:15:43;;;;;;;;;;;;;;;21.61;70.43;101354.97;1023659;29;601;-75
2022/08/01 02:16:34;;;;;;;;;;;;;;;21.62;70.22;101351.25;1021068;28;662;-75
2022/08/01 02:17:24;;;;;;;;;;;;;;;21.60;70.45;101353.28;1020267;29;694;-75
2022/08/01 02:18:15;;;;;;;;;;;;;;;21.59;70.52;101348.88;1020667;29;619;-76
2022/08/01 02:19:06;;;;;;;;;;;;;;;21.55;70.71;101346.63;1020681;29;702;-76
2022/08/01 02:19:56;;;;;;;;;;;;;;;21.59;70.64;101354.28;1020130;29;619;-76
2022/08/01 02:20:47;;;;;;;;;;;;;;;21.59;70.52;101350.72;1020223;29;698;-76
2022/08/01 02:21:37;;;;;;;;;;;;;;;21.58;70.41;101349.03;1020047;29;612;-75
2022/08/01 02:22:28;;;;;;;;;;;;;;;21.60;70.28;101356.00;1020046;29;959;-75
2022/08/01 02:23:18;;;;;;;;;;;;;;;21.64;70.23;101356.53;1020131;29;856;-75
2022/08/01 02:24:08;;;;;;;;;;;;;;;21.63;70.10;101355.69;1020136;29;676;-76
2022/08/01 02:24:59;;;;;;;;;;;;;;;21.60;70.43;101353.28;1020703;29;627;-75
2022/08/01 02:25:49;;;;;;;;;;;;;;;21.60;70.43;101350.56;1020062;29;670;-75
2022/08/01 02:26:40;;;;;;;;;;;;;;;21.59;70.53;101354.28;1019828;29;1586;-75
2022/08/01 02:27:30;;;;;;;;;;;;;;;21.60;70.43;101357.84;1021244;28;597;-75
2022/08/01 02:28:25;;;;;;;;;;;;;;;21.58;70.45;101358.00;1020976;28;1962;-75
2022/08/01 02:29:15;;;;;;;;;;;;;;;21.56;70.47;101354.59;1021279;28;686;-75
2022/08/01 02:30:05;;;;;;;;;;;;;;;21.57;70.42;101348.16;1021069;28;720;-75
2022/08/01 02:30:56;;;;;;;;;;;;;;;21.60;70.10;101353.28;1021352;28;677;-75
2022/08/01 02:31:46;;;;;;;;;;;;;;;21.59;69.96;101351.56;1020801;28;639;-75
2022/08/01 02:32:37;;;;;;;;;;;;;;;21.60;70.26;101347.84;1020437;28;769;-75
2022/08/01 02:33:31;;;;;;;;;;;;;;;21.58;70.27;101354.44;1020911;28;812;-75
2022/08/01 02:34:22;;;;;;;;;;;;;;;21.57;70.09;101356.31;1021098;28;689;-75
2022/08/01 02:35:12;;;;;;;;;;;;;;;21.59;70.18;101367.00;1021293;28;686;-75
2022/08/01 02:36:02;;;;;;;;;;;;;;;21.60;70.06;101364.13;1021023;28;631;-75
2022/08/01 02:36:53;;;;;;;;;;;;;;;21.59;70.04;101362.44;1021296;28;654;-76
2022/08/01 02:37:43;;;;;;;;;;;;;;;21.57;70.33;101356.31;1021251;28;785;-75
2022/08/01 02:38:34;;;;;;;;;;;;;;;21.58;70.04;101362.59;1021245;28;618;-75
2022/08/01 02:39:24;;;;;;;;;;;;;;;21.58;70.21;101362.59;1021271;28;634;-75
2022/08/01 02:40:14;;;;;;;;;;;;;;;21.56;70.21;101360.03;1021005;28;627;-75
2022/08/01 02:41:05;;;;;;;;;;;;;;;21.54;70.38;101359.31;1021177;28;658;-75
2022/08/01 02:41:55;;;;;;;;;;;;;;;21.56;70.16;101364.59;1021929;28;706;-76
2022/08/01 02:42:46;;;;;;;;;;;;;;;21.57;70.19;101363.59;1021850;28;591;-75
2022/08/01 02:43:36;;;;;;;;;;;;;;;21.56;69.99;101365.44;1021956;28;635;-76
2022/08/01 02:44:27;;;;;;;;;;;;;;;21.58;70.07;101363.44;1021834;28;760;-76
2022/08/01 02:45:17;;;;;;;;;;;;;;;21.58;70.33;101368.84;1021955;28;675;-75
2022/08/01 02:46:07;;;;;;;;;;;;;;;21.55;70.16;101358.31;1021965;28;634;-75
2022/08/01 02:47:01;;;;;;;;;;;;;;;21.56;69.99;101360.03;1018034;28;674;-75
2022/08/01 02:47:52;;;;;;;;;;;;;;;21.57;70.11;101355.44;1018053;29;701;-75
2022/08/01 02:48:42;;;;;;;;;;;;;;;21.57;70.05;101367.16;1017873;28;662;-75
2022/08/01 02:49:33;;;;;;;;;;;;;;;21.55;70.30;101358.31;1018110;29;717;-75
2022/08/01 02:50:23;;;;;;;;;;;;;;;21.55;70.23;101358.31;1017924;28;583;-75
2022/08/01 02:51:14;;;;;;;;;;;;;;;21.54;70.36;101361.19;1017887;29;568;-75
2022/08/01 02:52:04;;;;;;;;;;;;;;;21.54;70.18;101351.19;1018060;29;631;-75
2022/08/01 02:52:54;;;;;;;;;;;;;;;21.54;70.29;101364.75;1017807;29;678;-75
2022/08/01 02:53:45;;;;;;;;;;;;;;;21.56;70.36;101360.03;1018036;29;631;-75
2022/08/01 02:54:35;;;;;;;;;;;;;;;21.53;70.56;101351.34;1017405;29;739;-76
2022/08/01 02:55:26;;;;;;;;;;;;;;;21.52;70.40;101353.22;1017310;29;630;-75
2022/08/01 02:56:16;;;;;;;;;;;;;;;21.56;70.50;101356.47;1017990;29;663;-75
2022/08/01 02:57:07;;;;;;;;;;;;;;;21.55;70.16;101352.91;1017953;29;760;-74
2022/08/01 02:57:57;;;;;;;;;;;;;;;21.55;70.43;101358.31;1017993;29;631;-74
2022/08/01 02:58:48;;;;;;;;;;;;;;;21.56;70.40;101351.88;1019409;29;1229;-74
2022/08/01 02:59:38;;;;;;;;;;;;;;;21.57;70.24;101350.88;1020930;29;686;-74
2022/08/01 03:00:29;;;;;;;;;;;;;;;21.59;70.16;101353.44;1019885;29;644;-74
2022/08/01 03:01:19;;;;;;;;;;;;;;;21.54;70.43;101351.19;1019656;29;601;-75
2022/08/01 03:02:10;;;;;;;;;;;;;;;21.55;70.17;101352.91;1020375;29;671;-74
2022/08/01 03:03:00;;;;;;;;;;;;;;;21.53;70.37;101354.91;1024879;28;692;-75
2022/08/01 03:03:50;;;;;;;;;;;;;;;21.52;70.44;101353.22;1025398;28;686;-74
2022/08/01 03:04:41;;;;;;;;;;;;;;;21.51;70.29;101350.66;1022044;28;666;-74
2022/08/01 03:05:34;;;;;;;;;;;;;;;21.53;70.51;101349.47;1021189;29;677;-75
2022/08/01 03:06:25;;;;;;;;;;;;;;;21.54;70.39;101351.19;1020196;29;1639;-74
2022/08/01 03:07:15;;;;;;;;;;;;;;;21.56;70.50;101353.75;1021769;28;693;-75
2022/08/01 03:08:05;;;;;;;;;;;;;;;21.57;70.33;101353.59;1021653;28;1894;-74
2022/08/01 03:08:56;;;;;;;;;;;;;;;21.56;70.60;101342.91;1021964;28;676;-74
2022/08/01 03:09:46;;;;;;;;;;;;;;;21.55;70.31;101352.91;1021787;28;701;-75
2022/08/01 03:10:37;;;;;;;;;;;;;;;21.57;70.28;101348.16;1021955;28;635;-75
2022/08/01 03:11:28;;;;;;;;;;;;;;;21.55;70.46;101352.91;1021780;28;762;-74
2022/08/01 03:12:18;;;;;;;;;;;;;;;21.55;70.38;101347.47;1021786;28;858;-75
2022/08/01 03:13:09;;;;;;;;;;;;;;;21.56;70.38;101346.47;1021938;28;587;-74
2022/08/01 03:13:59;;;;;;;;;;;;;;;21.56;70.33;101356.47;1021834;28;610;-75
2022/08/01 03:14:50;;;;;;;;;;;;;;;21.53;70.36;101364.91;1021885;28;646;-74
2022/08/01 03:15:40;;;;;;;;;;;;;;;21.53;70.56;101354.06;1021773;28;634;-74
2022/08/01 03:16:31;;;;;;;;;;;;;;;21.52;70.51;101347.78;1021837;28;729;-75
2022/08/01 03:17:21;;;;;;;;;;;;;;;21.52;70.49;101355.91;1021940;28;619;-74
2022/08/01 03:18:12;;;;;;;;;;;;;;;21.54;70.36;101356.63;1021642;28;772;-74
2022/08/01 03:19:02;;;;;;;;;;;;;;;21.52;70.81;101361.34;1021919;28;638;-74
2022/08/01 03:19:52;;;;;;;;;;;;;;;21.53;70.42;101357.63;1021756;28;692;-74
2022/08/01 03:20:43;;;;;;;;;;;;;;;21.54;70.34;101355.75;1020709;29;728;-74
2022/08/01 03:21:34;;;;;;;;;;;;;;;21.52;70.38;101361.34;1021923;28;716;-74
2022/08/01 03:22:24;;;;;;;;;;;;;;;21.52;70.40;101357.78;1021571;28;1199;-74
2022/08/01 03:23:15;;;;;;;;;;;;;;;21.50;70.60;101366.06;1021476;29;742;-74
2022/08/01 03:24:05;;;;;;;;;;;;;;;21.52;70.54;101364.06;1021467;28;634;-74
2022/08/01 03:24:55;;;;;;;;;;;;;;;21.50;70.62;101360.66;1021760;28;698;-74
2022/08/01 03:25:46;;;;;;;;;;;;;;;21.53;70.60;101354.91;1021702;28;1570;-74
2022/08/01 03:26:36;;;;;;;;;;;;;;;21.56;70.28;101364.59;1020663;29;592;-74
2022/08/01 03:27:27;;;;;;;;;;;;;;;21.53;70.37;101364.91;1020703;29;760;-74
2022/08/01 03:28:17;;;;;;;;;;;;;;;21.57;70.14;101367.16;1020507;29;1962;-74
2022/08/01 03:29:08;;;;;;;;;;;;;;;21.55;70.04;101362.88;1021201;29;615;-74
2022/08/01 03:29:58;;;;;;;;;;;;;;;21.54;70.54;101372.88;1020691;29;766;-74
2022/08/01 03:30:49;;;;;;;;;;;;;;;21.55;70.21;101369.16;1020667;29;643;-73
2022/08/01 03:31:42;;;;;;;;;;;;;;;21.54;70.39;101367.47;1020302;29;659;-73
2022/08/01 03:32:32;;;;;;;;;;;;;;;21.56;70.26;101373.59;1021202;29;702;-74
2022/08/01 03:33:23;;;;;;;;;;;;;;;21.52;70.40;101364.06;1020625;29;682;-73
2022/08/01 03:34:13;;;;;;;;;;;;;;;21.53;70.06;101368.47;1020606;29;649;-74
2022/08/01 03:35:04;;;;;;;;;;;;;;;21.51;70.50;101367.78;1024708;28;682;-73
2022/08/01 03:35:54;;;;;;;;;;;;;;;21.50;70.12;101360.66;1024414;29;547;-74
2022/08/01 03:36:45;;;;;;;;;;;;;;;21.51;70.39;101365.06;1020749;29;686;-73
2022/08/01 03:37:35;;;;;;;;;;;;;;;21.52;70.22;101372.19;1020688;29;745;-74
2022/08/01 03:38:26;;;;;;;;;;;;;;;21.52;70.17;101364.06;1024852;28;634;-74
2022/08/01 03:39:16;;;;;;;;;;;;;;;21.52;70.34;101366.75;1024186;29;608;-74
2022/08/01 03:40:07;;;;;;;;;;;;;;;21.51;70.46;101366.91;1020791;29;620;-75
2022/08/01 03:40:57;;;;;;;;;;;;;;;21.51;70.34;101369.63;1020576;29;639;-74
2022/08/01 03:41:48;;;;;;;;;;;;;;;21.49;70.33;101367.09;1020784;29;663;-74
2022/08/01 03:42:38;;;;;;;;;;;;;;;21.51;70.52;101367.78;1020637;29;615;-75
2022/08/01 03:43:28;;;;;;;;;;;;;;;21.49;70.55;101372.53;1020578;29;543;-75
2022/08/01 03:44:19;;;;;;;;;;;;;;;21.50;70.66;101376.09;1024854;28;654;-75
2022/08/01 03:45:09;;;;;;;;;;;;;;;21.48;70.17;101363.53;1024330;28;634;-75
2022/08/01 03:46:00;;;;;;;;;;;;;;;21.47;70.68;101375.41;1021253;29;752;-75
2022/08/01 03:46:50;;;;;;;;;;;;;;;21.46;70.59;101368.28;1017296;29;682;-75
2022/08/01 03:47:41;;;;;;;;;;;;;;;21.45;70.41;101372.00;1016627;29;623;-75
2022/08/01 03:48:31;;;;;;;;;;;;;;;21.47;70.64;101375.41;1016651;29;1903;-75
2022/08/01 03:49:21;;;;;;;;;;;;;;;21.46;70.37;101375.56;1016714;29;657;-75
2022/08/01 03:50:12;;;;;;;;;;;;;;;21.47;70.23;101369.97;1017798;29;618;-75
2022/08/01 03:51:02;;;;;;;;;;;;;;;21.47;70.36;101367.25;1016653;29;623;-75
2022/08/01 03:51:53;;;;;;;;;;;;;;;21.46;70.22;101376.41;1016677;29;647;-75
2022/08/01 03:52:43;;;;;;;;;;;;;;;21.48;70.43;101371.69;1016323;29;635;-75
2022/08/01 03:53:34;;;;;;;;;;;;;;;21.46;70.26;101376.41;1016548;29;710;-75
2022/08/01 03:54:24;;;;;;;;;;;;;;;21.48;70.30;101376.25;1016537;29;636;-75
2022/08/01 03:55:16;;;;;;;;;;;;;;;21.48;70.41;101373.53;1016705;29;638;-74
2022/08/01 03:56:08;;;;;;;;;;;;;;;21.47;70.21;101369.97;1016618;29;670;-75
2022/08/01 03:56:58;;;;;;;;;;;;;;;21.45;70.36;101373.84;1016743;29;697;-75
2022/08/01 03:57:49;;;;;;;;;;;;;;;21.46;70.36;101379.13;1016637;29;680;-74
2022/08/01 03:58:39;;;;;;;;;;;;;;;21.47;70.18;101377.25;1017061;29;1294;-74
2022/08/01 03:59:30;;;;;;;;;;;;;;;21.49;69.95;101377.97;1019716;29;717;-74
2022/08/01 04:00:20;;;;;;;;;;;;;;;21.47;70.31;101372.69;1019857;29;589;-75
2022/08/01 04:01:10;;;;;;;;;;;;;;;21.45;70.17;101379.28;1020137;29;686;-75
2022/08/01 04:02:01;;;;;;;;;;;;;;;21.47;70.12;101375.41;1019887;29;603;-75
2022/08/01 04:02:51;;;;;;;;;;;;;;;21.46;70.43;101375.56;1020047;29;642;-75
2022/08/01 04:03:42;;;;;;;;;;;;;;;21.46;70.17;101368.28;1020154;29;635;-75
2022/08/01 04:04:32;;;;;;;;;;;;;;;21.46;70.37;101373.69;1019960;29;693;-75
2022/08/01 04:05:23;;;;;;;;;;;;;;;21.46;70.22;101376.41;1020153;29;643;-75
2022/08/01 04:06:14;;;;;;;;;;;;;;;21.47;70.17;101378.09;1020097;29;556;-75
2022/08/01 04:07:06;;;;;;;;;;;;;;;21.44;70.32;101372.16;1019887;29;643;-76
2022/08/01 04:07:58;;;;;;;;;;;;;;;21.45;70.31;101373.84;1019988;29;631;-75
2022/08/01 04:08:55;;;;;;;;;;;;;;;21.43;70.44;101370.44;1025257;28;658;-76
2022/08/01 04:09:45;;;;;;;;;;;;;;;21.47;70.33;101374.53;1025150;28;694;-76
2022/08/01 04:10:36;;;;;;;;;;;;;;;21.44;70.37;101369.44;1021681;28;634;-74
2022/08/01 04:11:27;;;;;;;;;;;;;;;21.43;70.61;101373.16;1021055;29;630;-74
2022/08/01 04:12:17;;;;;;;;;;;;;;;21.44;70.52;101375.72;1020449;29;613;-75
2022/08/01 04:13:07;;;;;;;;;;;;;;;21.41;70.34;101380.59;1021598;29;631;-75
2022/08/01 04:13:58;;;;;;;;;;;;;;;21.43;70.44;101371.28;1021055;29;782;-74
2022/08/01 04:14:48;;;;;;;;;;;;;;;21.43;70.39;101370.44;1021617;28;712;-74
2022/08/01 04:15:39;;;;;;;;;;;;;;;21.44;70.21;101377.56;1021485;28;611;-74
2022/08/01 04:16:29;;;;;;;;;;;;;;;21.43;70.41;101378.56;1021009;29;768;-74
2022/08/01 04:17:20;;;;;;;;;;;;;;;21.45;70.45;101380.13;1020480;29;655;-74
2022/08/01 04:18:10;;;;;;;;;;;;;;;21.45;70.21;101385.53;1020450;29;739;-74
2022/08/01 04:19:01;;;;;;;;;;;;;;;21.45;70.61;101385.53;1022068;28;685;-74
2022/08/01 04:19:51;;;;;;;;;;;;;;;21.44;70.10;101383.84;1020508;29;607;-74
2022/08/01 04:20:42;;;;;;;;;;;;;;;21.42;70.46;101383.16;1020496;29;639;-74
2022/08/01 04:21:32;;;;;;;;;;;;;;;21.40;70.42;101382.44;1020456;29;698;-74
2022/08/01 04:22:22;;;;;;;;;;;;;;;21.43;70.47;101390.28;1020200;29;1125;-73
2022/08/01 04:23:13;;;;;;;;;;;;;;;21.41;70.51;101383.28;1020329;29;627;-74
2022/08/01 04:24:04;;;;;;;;;;;;;;;21.42;70.61;101387.72;1020468;29;635;-74
2022/08/01 04:24:55;;;;;;;;;;;;;;;21.40;70.62;101387.88;1022031;28;690;-74
2022/08/01 04:25:45;;;;;;;;;;;;;;;21.38;70.72;101386.31;1017100;29;616;-75